createdAt,value
2019-04-27T00:02:26.463Z,100492.70
2019-04-27T00:05:03.132Z,100495.39
2019-04-27T00:07:51.419Z,100487.92
2019-04-27T00:10:50.393Z,100493.19
2019-04-27T00:13:20.459Z,100476.46
2019-04-27T00:16:19.338Z,100483.45
2019-04-27T00:19:17.535Z,100481.92
2019-04-27T00:22:03.102Z,100503.52
2019-04-27T00:24:33.547Z,100473.61
2019-04-27T00:27:06.748Z,100466.18
2019-04-27T00:29:36.893Z,100493.88
2019-04-27T00:32:07.163Z,100489.25
2019-04-27T00:34:37.421Z,100491.27
2019-04-27T00:37:20.159Z,100489.94
2019-04-27T00:39:58.759Z,100483.64
2019-04-27T00:42:28.838Z,100470.37
2019-04-27T00:44:59.849Z,100482.66
2019-04-27T00:47:30.001Z,100478.83
2019-04-27T00:50:00.050Z,100495.11
2019-04-27T00:52:30.174Z,100476.17
2019-04-27T00:55:00.283Z,100496.59
2019-04-27T00:57:47.721Z,100491.57
2019-04-27T01:00:44.011Z,100498.89
2019-04-27T01:03:23.164Z,100485.95
2019-04-27T01:05:53.219Z,100507.20
2019-04-27T01:08:23.266Z,100490.42
2019-04-27T01:10:53.783Z,100483.30
2019-04-27T01:13:24.843Z,100480.95
2019-04-27T01:15:55.697Z,100489.95
2019-04-27T01:18:25.752Z,100492.50
2019-04-27T01:20:55.913Z,100509.27
2019-04-27T01:23:25.971Z,100482.36
2019-04-27T01:26:10.697Z,100501.90
2019-04-27T01:28:45.917Z,100508.88
2019-04-27T01:31:15.976Z,100493.58
2019-04-27T01:33:46.062Z,100479.62
2019-04-27T01:36:16.144Z,100490.73
2019-04-27T01:38:46.188Z,100483.59
2019-04-27T01:41:16.255Z,100490.04
2019-04-27T01:43:46.312Z,100474.64
2019-04-27T01:46:16.338Z,100499.05
2019-04-27T01:48:46.394Z,100504.53
2019-04-27T01:51:16.474Z,100512.11
2019-04-27T01:53:46.551Z,100518.56
2019-04-27T01:56:16.566Z,100517.84
2019-04-27T01:58:46.610Z,100512.83
2019-04-27T02:01:48.949Z,100519.30
2019-04-27T02:04:47.046Z,100507.64
2019-04-27T02:07:19.082Z,100521.86
2019-04-27T02:09:48.946Z,100505.34
2019-04-27T02:12:19.315Z,100503.89
2019-04-27T02:14:49.361Z,100493.89
2019-04-27T02:17:19.447Z,100504.28
2019-04-27T02:19:49.538Z,100515.27
2019-04-27T02:22:19.637Z,100492.56
2019-04-27T02:24:50.025Z,100512.39
2019-04-27T02:27:21.733Z,100513.34
2019-04-27T02:30:11.780Z,100508.22
2019-04-27T02:33:06.725Z,100527.47
2019-04-27T02:35:39.107Z,100545.35
2019-04-27T02:38:10.071Z,100531.94
2019-04-27T02:40:55.822Z,100504.25
2019-04-27T02:43:44.812Z,100540.55
2019-04-27T02:46:14.844Z,100535.39
2019-04-27T02:48:55.972Z,100546.31
2019-04-27T02:51:22.419Z,100568.66
2019-04-27T02:54:00.175Z,100552.97
2019-04-27T02:56:30.861Z,100559.25
2019-04-27T02:59:00.951Z,100561.27
2019-04-27T03:01:34.883Z,100575.37
2019-04-27T03:04:04.977Z,100567.62
2019-04-27T03:06:35.038Z,100579.00
2019-04-27T03:09:10.213Z,100579.84
2019-04-27T03:11:39.713Z,100596.80
2019-04-27T03:14:35.844Z,100578.02
2019-04-27T03:17:22.399Z,100601.15
2019-04-27T03:19:56.686Z,100620.45
2019-04-27T03:22:45.773Z,100621.52
2019-04-27T03:25:35.623Z,100623.19
2019-04-27T03:28:10.969Z,100633.73
2019-04-27T03:30:42.867Z,100639.27
2019-04-27T03:33:13.473Z,100641.66
2019-04-27T03:35:44.203Z,100647.95
2019-04-27T03:38:14.414Z,100654.45
2019-04-27T03:40:44.487Z,100665.89
2019-04-27T03:43:21.218Z,100660.90
2019-04-27T03:45:52.493Z,100650.87
2019-04-27T03:48:22.753Z,100671.23
2019-04-27T03:51:09.988Z,100674.37
2019-04-27T03:53:49.732Z,100649.56
2019-04-27T03:56:39.548Z,100679.81
2019-04-27T03:59:29.511Z,100694.96
2019-04-27T04:02:02.405Z,100690.53
2019-04-27T04:04:32.914Z,100705.48
2019-04-27T04:07:13.575Z,100693.61
2019-04-27T04:09:43.628Z,100697.27
2019-04-27T04:12:31.294Z,100722.61
2019-04-27T04:15:01.365Z,100721.19
2019-04-27T04:17:31.410Z,100715.95
2019-04-27T04:20:02.386Z,100732.00
2019-04-27T04:22:33.479Z,100750.72
2019-04-27T04:25:03.650Z,100734.52
2019-04-27T04:27:33.752Z,100757.91
2019-04-27T04:30:04.107Z,100778.47
2019-04-27T04:32:34.208Z,100749.63
2019-04-27T04:35:21.125Z,100766.21
2019-04-27T04:37:52.694Z,100782.45
2019-04-27T04:40:30.656Z,100773.96
2019-04-27T04:43:06.981Z,100787.02
2019-04-27T04:45:59.632Z,100789.53
2019-04-27T04:48:30.336Z,100799.44
2019-04-27T04:51:00.376Z,100810.17
2019-04-27T04:53:30.405Z,100809.81
2019-04-27T04:56:00.537Z,100818.12
2019-04-27T04:58:31.319Z,100816.94
2019-04-27T05:01:02.023Z,100819.17
2019-04-27T05:03:32.278Z,100830.42
2019-04-27T05:06:02.361Z,100828.16
2019-04-27T05:08:32.444Z,100838.18
2019-04-27T05:11:02.609Z,100837.86
2019-04-27T05:13:32.653Z,100845.52
2019-04-27T05:16:02.709Z,100855.73
2019-04-27T05:18:32.750Z,100857.45
2019-04-27T05:21:11.885Z,100866.47
2019-04-27T05:23:41.929Z,100871.56
2019-04-27T05:26:11.982Z,100869.70
2019-04-27T05:28:42.050Z,100877.66
2019-04-27T05:31:12.059Z,100884.63
2019-04-27T05:33:42.096Z,100895.45
2019-04-27T05:36:12.162Z,100896.38
2019-04-27T05:38:45.920Z,100905.06
2019-04-27T05:41:14.692Z,100911.81
2019-04-27T05:44:07.568Z,100930.04
2019-04-27T05:47:01.262Z,100928.58
2019-04-27T05:49:40.439Z,100943.61
2019-04-27T05:52:29.065Z,100942.08
2019-04-27T05:54:59.302Z,100941.09
2019-04-27T05:57:31.293Z,100943.13
2019-04-27T06:00:02.307Z,100936.14
2019-04-27T06:02:33.159Z,100945.27
2019-04-27T06:05:04.513Z,100954.01
2019-04-27T06:07:34.674Z,100970.47
2019-04-27T06:10:04.990Z,100977.53
2019-04-27T06:12:35.065Z,100990.23
2019-04-27T06:15:05.885Z,100992.45
2019-04-27T06:17:35.930Z,100990.23
2019-04-27T06:20:06.634Z,100996.78
2019-04-27T06:22:36.681Z,101009.86
2019-04-27T06:25:06.967Z,101013.27
2019-04-27T06:27:37.046Z,101013.27
2019-04-27T06:30:09.214Z,101025.27
2019-04-27T06:32:39.645Z,101023.89
2019-04-27T06:35:12.299Z,101032.47
2019-04-27T06:37:41.646Z,101038.84
2019-04-27T06:40:11.761Z,101025.22
2019-04-27T06:42:41.822Z,101054.46
2019-04-27T06:45:11.889Z,101060.83
2019-04-27T06:47:41.919Z,101066.98
2019-04-27T06:50:12.044Z,101076.19
2019-04-27T06:52:43.161Z,101068.17
2019-04-27T06:55:13.278Z,101080.81
2019-04-27T06:57:43.304Z,101069.14
2019-04-27T07:00:13.378Z,101067.87
2019-04-27T07:02:43.402Z,101084.64
2019-04-27T07:05:13.474Z,101097.92
2019-04-27T07:07:43.497Z,101091.91
2019-04-27T07:10:13.529Z,101108.95
2019-04-27T07:12:43.554Z,101101.79
2019-04-27T07:15:15.504Z,101117.85
2019-04-27T07:17:45.385Z,101108.16
2019-04-27T07:20:15.454Z,101121.97
2019-04-27T07:22:45.522Z,101129.58
2019-04-27T07:25:15.581Z,101133.08
2019-04-27T07:27:45.803Z,101129.98
2019-04-27T07:30:15.886Z,101130.69
2019-04-27T07:32:45.930Z,101135.02
2019-04-27T07:35:15.988Z,101143.61
2019-04-27T07:37:46.051Z,101124.20
2019-04-27T07:40:16.112Z,101157.43
2019-04-27T07:42:49.641Z,101153.44
2019-04-27T07:45:25.598Z,101159.73
2019-04-27T07:47:55.738Z,101165.75
2019-04-27T07:50:25.786Z,101169.39
2019-04-27T07:52:55.821Z,101177.00
2019-04-27T07:55:25.887Z,101181.57
2019-04-27T07:57:55.905Z,101192.50
2019-04-27T08:00:25.922Z,101192.47
2019-04-27T08:02:55.944Z,101194.98
2019-04-27T08:05:25.957Z,101197.50
2019-04-27T08:07:56.975Z,101204.98
2019-04-27T08:10:27.021Z,101215.69
2019-04-27T08:12:57.063Z,101202.97
2019-04-27T08:15:28.999Z,101208.88
2019-04-27T08:17:59.284Z,101210.55
2019-04-27T08:20:29.515Z,101206.73
2019-04-27T08:23:01.325Z,101232.31
2019-04-27T08:25:31.539Z,101217.24
2019-04-27T08:28:11.630Z,101235.41
2019-04-27T08:30:56.504Z,101224.97
2019-04-27T08:33:26.566Z,101236.20
2019-04-27T08:35:59.135Z,101234.53
2019-04-27T08:38:29.625Z,101235.73
2019-04-27T08:40:59.702Z,101224.36
2019-04-27T08:43:29.762Z,101233.39
2019-04-27T08:46:00.346Z,101242.52
2019-04-27T08:48:34.702Z,101241.41
2019-04-27T08:51:03.006Z,101241.06
2019-04-27T08:53:33.094Z,101253.81
2019-04-27T08:56:03.166Z,101258.83
2019-04-27T08:58:33.218Z,101250.96
2019-04-27T09:01:03.420Z,101258.62
2019-04-27T09:03:33.572Z,101251.84
2019-04-27T09:06:07.064Z,101259.99
2019-04-27T09:08:56.780Z,101269.19
2019-04-27T09:11:39.938Z,101267.53
2019-04-27T09:14:34.744Z,101271.25
2019-04-27T09:17:13.781Z,101264.53
2019-04-27T09:20:09.532Z,101279.93
2019-04-27T09:22:39.733Z,101274.61
2019-04-27T09:25:10.774Z,101266.47
2019-04-27T09:27:41.224Z,101270.28
2019-04-27T09:30:11.274Z,101267.06
2019-04-27T09:32:41.397Z,101279.83
2019-04-27T09:35:11.442Z,101273.32
2019-04-27T09:37:41.507Z,101262.92
2019-04-27T09:40:13.901Z,101266.45
2019-04-27T09:42:43.941Z,101263.73
2019-04-27T09:45:15.864Z,101273.52
2019-04-27T09:47:46.815Z,101278.17
2019-04-27T09:50:17.258Z,101285.42
2019-04-27T09:52:47.298Z,101277.45
2019-04-27T09:55:17.409Z,101274.64
2019-04-27T09:57:47.433Z,101281.08
2019-04-27T10:00:17.526Z,101281.08
2019-04-27T10:02:47.570Z,101281.69
2019-04-27T10:05:18.754Z,101282.16
2019-04-27T10:07:48.791Z,101282.16
2019-04-27T10:10:18.893Z,101294.70
2019-04-27T10:12:48.941Z,101293.86
2019-04-27T10:15:19.058Z,101292.30
2019-04-27T10:17:49.157Z,101292.34
2019-04-27T10:20:20.012Z,101306.67
2019-04-27T10:22:50.145Z,101306.67
2019-04-27T10:25:27.710Z,101317.27
2019-04-27T10:28:00.778Z,101307.20
2019-04-27T10:30:31.575Z,101314.70
2019-04-27T10:33:01.596Z,101309.67
2019-04-27T10:35:31.634Z,101309.29
2019-04-27T10:38:01.753Z,101322.23
2019-04-27T10:40:31.787Z,101333.58
2019-04-27T10:43:01.853Z,101324.06
2019-04-27T10:45:32.983Z,101337.66
2019-04-27T10:48:03.118Z,101337.66
2019-04-27T10:50:33.166Z,101329.36
2019-04-27T10:53:03.209Z,101334.24
2019-04-27T10:55:33.249Z,101345.72
2019-04-27T10:58:03.436Z,101341.77
2019-04-27T11:00:38.714Z,101346.52
2019-04-27T11:03:08.826Z,101342.73
2019-04-27T11:06:10.058Z,101350.95
2019-04-27T11:08:40.112Z,101350.60
2019-04-27T11:11:10.142Z,101354.12
2019-04-27T11:13:40.234Z,101356.75
2019-04-27T11:16:10.278Z,101359.42
2019-04-27T11:18:40.382Z,101355.60
2019-04-27T11:21:10.385Z,101349.23
2019-04-27T11:23:40.424Z,101359.56
2019-04-27T11:26:11.215Z,101360.52
2019-04-27T11:28:42.752Z,101366.64
2019-04-27T11:31:12.806Z,101353.09
2019-04-27T11:33:42.876Z,101372.67
2019-04-27T11:36:49.772Z,101358.78
2019-04-27T11:39:21.240Z,101371.48
2019-04-27T11:41:51.279Z,101369.95
2019-04-27T11:44:21.307Z,101378.25
2019-04-27T11:46:51.349Z,101383.82
2019-04-27T11:49:21.442Z,101372.28
2019-04-27T11:51:51.542Z,101393.92
2019-04-27T11:54:21.649Z,101381.16
2019-04-27T11:56:51.694Z,101395.76
2019-04-27T11:59:22.705Z,101373.73
2019-04-27T12:01:55.944Z,101381.72
2019-04-27T12:04:26.374Z,101380.95
2019-04-27T12:06:57.364Z,101392.80
2019-04-27T12:09:27.403Z,101396.13
2019-04-27T12:12:12.609Z,101395.48
2019-04-27T12:14:29.316Z,101400.18
2019-04-27T12:16:59.339Z,101403.91
2019-04-27T12:19:29.358Z,101408.62
2019-04-27T12:21:59.466Z,101406.64
2019-04-27T12:24:29.558Z,101407.22
2019-04-27T12:27:15.914Z,101421.90
2019-04-27T12:30:26.061Z,101438.42
2019-04-27T12:32:56.644Z,101414.59
2019-04-27T12:35:27.708Z,101421.95
2019-04-27T12:37:57.794Z,101420.49
2019-04-27T12:40:27.862Z,101402.02
2019-04-27T12:42:58.965Z,101406.20
2019-04-27T12:45:30.137Z,101422.19
2019-04-27T12:48:00.482Z,101422.83
2019-04-27T12:50:30.483Z,101426.27
2019-04-27T12:53:03.177Z,101435.73
2019-04-27T12:56:11.227Z,101434.08
2019-04-27T12:59:00.539Z,101433.05
2019-04-27T13:01:30.659Z,101428.95
2019-04-27T13:04:00.826Z,101438.14
2019-04-27T13:06:31.811Z,101434.13
2019-04-27T13:09:02.718Z,101444.77
2019-04-27T13:11:34.152Z,101441.70
2019-04-27T13:14:06.101Z,101464.89
2019-04-27T13:16:35.995Z,101456.48
2019-04-27T13:19:06.239Z,101457.93
2019-04-27T13:21:36.641Z,101461.24
2019-04-27T13:24:07.205Z,101450.00
2019-04-27T13:26:38.118Z,101461.18
2019-04-27T13:29:08.350Z,101475.80
2019-04-27T13:31:38.402Z,101487.86
2019-04-27T13:34:08.454Z,101476.56
2019-04-27T13:36:38.496Z,101478.05
2019-04-27T13:39:08.626Z,101471.92
2019-04-27T13:41:40.114Z,101466.38
2019-04-27T13:44:10.214Z,101484.52
2019-04-27T13:46:57.693Z,101470.53
2019-04-27T13:49:46.732Z,101474.27
2019-04-27T13:52:26.779Z,101478.30
2019-04-27T13:54:57.267Z,101479.53
2019-04-27T13:57:27.313Z,101482.03
2019-04-27T13:59:57.327Z,101481.31
2019-04-27T14:02:32.298Z,101477.62
2019-04-27T14:04:59.126Z,101482.80
2019-04-27T14:07:29.174Z,101484.72
2019-04-27T14:10:00.005Z,101482.05
2019-04-27T14:12:30.101Z,101494.61
2019-04-27T14:15:00.142Z,101499.11
2019-04-27T14:17:30.156Z,101500.78
2019-04-27T14:20:00.212Z,101502.44
2019-04-27T14:22:31.587Z,101507.45
2019-04-27T14:25:01.750Z,101500.89
2019-04-27T14:27:40.667Z,101502.22
2019-04-27T14:30:12.494Z,101496.34
2019-04-27T14:32:42.587Z,101498.93
2019-04-27T14:35:12.701Z,101505.88
2019-04-27T14:37:42.719Z,101503.80
2019-04-27T14:40:13.210Z,101526.77
2019-04-27T14:42:43.368Z,101514.92
2019-04-27T14:45:13.447Z,101514.03
2019-04-27T14:47:43.505Z,101498.55
2019-04-27T14:50:13.563Z,101517.91
2019-04-27T14:52:43.586Z,101518.59
2019-04-27T14:55:13.643Z,101531.27
2019-04-27T14:57:43.649Z,101517.19
2019-04-27T15:00:15.398Z,101527.73
2019-04-27T15:02:45.449Z,101533.64
2019-04-27T15:05:15.468Z,101534.95
2019-04-27T15:07:45.490Z,101534.94
2019-04-27T15:10:16.108Z,101538.52
2019-04-27T15:12:46.401Z,101542.46
2019-04-27T15:15:16.418Z,101555.44
2019-04-27T15:17:46.467Z,101549.75
2019-04-27T15:20:27.222Z,101553.81
2019-04-27T15:22:56.885Z,101557.23
2019-04-27T15:25:26.321Z,101554.78
2019-04-27T15:28:01.270Z,101580.11
2019-04-27T15:30:47.465Z,101547.49
2019-04-27T15:33:46.825Z,101559.80
2019-04-27T15:36:36.025Z,101564.32
2019-04-27T15:39:11.788Z,101551.52
2019-04-27T15:41:48.520Z,101540.14
2019-04-27T15:44:18.819Z,101550.98
2019-04-27T15:46:49.943Z,101565.81
2019-04-27T15:49:20.017Z,101549.64
2019-04-27T15:51:50.653Z,101562.77
2019-04-27T15:54:22.326Z,101563.55
2019-04-27T15:56:53.470Z,101559.55
2019-04-27T15:59:30.875Z,101560.38
2019-04-27T16:01:59.862Z,101566.28
2019-04-27T16:04:29.908Z,101565.45
2019-04-27T16:07:00.568Z,101574.75
2019-04-27T16:09:30.660Z,101571.21
2019-04-27T16:12:09.973Z,101579.66
2019-04-27T16:14:32.483Z,101581.67
2019-04-27T16:17:03.070Z,101576.90
2019-04-27T16:19:34.213Z,101589.73
2019-04-27T16:22:04.252Z,101580.11
2019-04-27T16:24:34.293Z,101594.58
2019-04-27T16:27:04.314Z,101586.41
2019-04-27T16:29:34.377Z,101589.66
2019-04-27T16:32:09.532Z,101599.33
2019-04-27T16:34:37.865Z,101607.88
2019-04-27T16:37:09.809Z,101613.63
2019-04-27T16:39:45.378Z,101596.94
2019-04-27T16:42:14.286Z,101610.00
2019-04-27T16:44:44.347Z,101599.09
2019-04-27T16:47:18.846Z,101602.95
2019-04-27T16:49:48.447Z,101601.48
2019-04-27T16:52:19.275Z,101609.50
2019-04-27T16:54:56.956Z,101603.31
2019-04-27T16:57:24.214Z,101610.34
2019-04-27T16:59:57.523Z,101611.97
2019-04-27T17:02:26.137Z,101615.27
2019-04-27T17:04:56.206Z,101629.58
2019-04-27T17:07:30.190Z,101620.70
2019-04-27T17:09:59.472Z,101632.59
2019-04-27T17:12:34.351Z,101634.72
2019-04-27T17:15:18.989Z,101644.19
2019-04-27T17:18:35.798Z,101641.77
2019-04-27T17:21:18.374Z,101645.05
2019-04-27T17:23:38.841Z,101639.71
2019-04-27T17:26:20.680Z,101650.56
2019-04-27T17:28:59.172Z,101638.00
2019-04-27T17:31:31.734Z,101646.30
2019-04-27T17:34:02.254Z,101646.19
2019-04-27T17:36:32.299Z,101653.33
2019-04-27T17:39:02.327Z,101661.27
2019-04-27T17:41:33.970Z,101661.76
2019-04-27T17:44:05.050Z,101665.83
2019-04-27T17:46:35.066Z,101666.95
2019-04-27T17:49:05.115Z,101676.15
2019-04-27T17:51:39.552Z,101678.47
2019-04-27T17:54:08.021Z,101660.45
2019-04-27T17:56:48.345Z,101661.02
2019-04-27T17:59:16.715Z,101665.11
2019-04-27T18:01:42.050Z,101674.19
2019-04-27T18:04:12.086Z,101667.48
2019-04-27T18:06:42.660Z,101667.01
2019-04-27T18:09:18.813Z,101667.94
2019-04-27T18:11:50.382Z,101668.44
2019-04-27T18:14:20.526Z,101671.59
2019-04-27T18:16:50.547Z,101666.05
2019-04-27T18:19:28.702Z,101665.91
2019-04-27T18:22:05.709Z,101660.41
2019-04-27T18:24:41.277Z,101665.52
2019-04-27T18:27:19.465Z,101665.52
2019-04-27T18:29:49.497Z,101671.37
2019-04-27T18:32:23.594Z,101678.79
2019-04-27T18:34:51.286Z,101680.34
2019-04-27T18:37:24.709Z,101688.53
2019-04-27T18:39:54.862Z,101691.55
2019-04-27T18:42:29.714Z,101698.42
2019-04-27T18:44:56.541Z,101693.53
2019-04-27T18:47:26.545Z,101699.27
2019-04-27T18:50:10.997Z,101689.58
2019-04-27T18:52:47.265Z,101696.03
2019-04-27T18:55:16.712Z,101702.02
2019-04-27T18:57:45.874Z,101705.17
2019-04-27T19:00:17.736Z,101710.86
2019-04-27T19:02:50.041Z,101709.80
2019-04-27T19:05:19.606Z,101702.91
2019-04-27T19:07:49.698Z,101722.13
2019-04-27T19:10:19.766Z,101718.90
2019-04-27T19:12:49.800Z,101718.90
2019-04-27T19:15:19.927Z,101732.22
2019-04-27T19:17:50.004Z,101730.66
2019-04-27T19:20:20.190Z,101728.03
2019-04-27T19:22:50.315Z,101735.61
2019-04-27T19:25:32.325Z,101735.61
2019-04-27T19:28:33.147Z,101741.06
2019-04-27T19:31:08.306Z,101738.17
2019-04-27T19:33:39.602Z,101736.78
2019-04-27T19:36:09.900Z,101740.06
2019-04-27T19:38:40.061Z,101749.86
2019-04-27T19:41:10.124Z,101749.86
2019-04-27T19:43:40.334Z,101750.22
2019-04-27T19:46:10.473Z,101765.35
2019-04-27T19:48:40.631Z,101757.75
2019-04-27T19:51:10.675Z,101767.78
2019-04-27T19:53:40.775Z,101765.05
2019-04-27T19:56:10.786Z,101768.69
2019-04-27T19:58:45.136Z,101785.89
2019-04-27T20:01:43.339Z,101776.14
2019-04-27T20:04:21.185Z,101775.24
2019-04-27T20:06:51.229Z,101780.37
2019-04-27T20:09:44.161Z,101794.52
2019-04-27T20:12:14.248Z,101791.76
2019-04-27T20:14:56.638Z,101791.76
2019-04-27T20:17:27.528Z,101805.66
2019-04-27T20:19:57.628Z,101802.41
2019-04-27T20:22:27.645Z,101803.97
2019-04-27T20:24:57.749Z,101809.98
2019-04-27T20:27:27.807Z,101816.80
2019-04-27T20:29:57.866Z,101809.19
2019-04-27T20:32:27.911Z,101818.48
2019-04-27T20:34:58.081Z,101812.33
2019-04-27T20:37:28.274Z,101824.19
2019-04-27T20:39:58.323Z,101825.80
2019-04-27T20:42:28.462Z,101822.66
2019-04-27T20:44:58.772Z,101825.70
2019-04-27T20:47:28.882Z,101820.49
2019-04-27T20:49:59.030Z,101824.16
2019-04-27T20:52:51.117Z,101834.70
2019-04-27T20:55:21.515Z,101831.67
2019-04-27T20:57:59.576Z,101834.26
2019-04-27T21:00:24.770Z,101834.26
2019-04-27T21:03:02.074Z,101834.30
2019-04-27T21:05:51.086Z,101834.59
2019-04-27T21:08:21.982Z,101834.59
2019-04-27T21:10:52.101Z,101833.87
2019-04-27T21:13:22.246Z,101838.62
2019-04-27T21:15:52.308Z,101851.29
2019-04-27T21:18:22.405Z,101833.16
2019-04-27T21:20:52.442Z,101828.31
2019-04-27T21:23:22.583Z,101830.73
2019-04-27T21:25:53.594Z,101832.18
2019-04-27T21:28:23.764Z,101828.11
2019-04-27T21:30:53.784Z,101834.77
2019-04-27T21:33:23.888Z,101839.72
2019-04-27T21:35:54.016Z,101826.42
2019-04-27T21:38:24.208Z,101828.64
2019-04-27T21:40:54.319Z,101836.50
2019-04-27T21:43:26.640Z,101826.47
2019-04-27T21:45:56.775Z,101835.45
2019-04-27T21:48:28.329Z,101837.26
2019-04-27T21:50:58.350Z,101839.08
2019-04-27T21:53:51.530Z,101835.09
2019-04-27T21:56:21.567Z,101839.08
2019-04-27T21:58:51.690Z,101840.89
2019-04-27T22:01:38.792Z,101839.20
2019-04-27T22:04:11.441Z,101845.36
2019-04-27T22:06:42.195Z,101836.66
2019-04-27T22:09:15.362Z,101834.13
2019-04-27T22:11:45.582Z,101836.94
2019-04-27T22:14:15.633Z,101859.39
2019-04-27T22:16:46.659Z,101856.73
2019-04-27T22:19:16.751Z,101849.72
2019-04-27T22:21:46.827Z,101846.81
2019-04-27T22:24:25.221Z,101847.66
2019-04-27T22:26:55.279Z,101850.68
2019-04-27T22:29:25.346Z,101857.69
2019-04-27T22:31:55.700Z,101858.54
2019-04-27T22:34:25.778Z,101865.19
2019-04-27T22:36:55.829Z,101859.38
2019-04-27T22:39:41.351Z,101859.38
2019-04-27T22:42:28.781Z,101863.38
2019-04-27T22:45:20.533Z,101861.56
2019-04-27T22:47:51.697Z,101863.38
2019-04-27T22:50:21.795Z,101852.73
2019-04-27T22:52:51.849Z,101858.38
2019-04-27T22:55:22.110Z,101850.08
2019-04-27T22:57:57.196Z,101855.61
2019-04-27T23:00:51.179Z,101853.50
2019-04-27T23:03:27.656Z,101866.19
2019-04-27T23:05:57.752Z,101877.91
2019-04-27T23:08:27.817Z,101878.03
2019-04-27T23:10:57.998Z,101879.97
2019-04-27T23:13:28.032Z,101885.56
2019-04-27T23:16:01.460Z,101879.84
2019-04-27T23:18:31.671Z,101877.80
2019-04-27T23:21:01.706Z,101882.41
2019-04-27T23:23:31.733Z,101880.73
2019-04-27T23:26:01.955Z,101885.19
2019-04-27T23:28:31.988Z,101888.06
2019-04-27T23:31:10.951Z,101895.48
2019-04-27T23:33:43.906Z,101893.53
2019-04-27T23:36:13.926Z,101904.65
2019-04-27T23:38:44.030Z,101904.16
2019-04-27T23:41:14.818Z,101908.88
2019-04-27T23:43:44.876Z,101905.97
2019-04-27T23:46:14.890Z,101907.09
2019-04-27T23:48:44.950Z,101898.39
2019-04-27T23:51:33.923Z,101911.53
2019-04-27T23:54:03.965Z,101903.08
2019-04-27T23:56:33.990Z,101914.65
2019-04-27T23:59:04.112Z,101903.78
